createdAt,value
2018-06-13T00:00:44.265Z,16.04
2018-06-13T00:01:44.201Z,16.04
2018-06-13T00:02:23.124Z,15.97
2018-06-13T00:03:23.065Z,16.04
2018-06-13T00:04:22.997Z,16.01
2018-06-13T00:05:43.935Z,16.05
2018-06-13T00:06:43.867Z,15.97
2018-06-13T00:07:23.476Z,15.94
2018-06-13T00:08:23.420Z,15.94
2018-06-13T00:09:23.351Z,16.01
2018-06-13T00:10:43.585Z,16.05
2018-06-13T00:11:43.479Z,16.00
2018-06-13T00:12:22.434Z,16.07
2018-06-13T00:13:22.398Z,16.08
2018-06-13T00:14:22.331Z,16.00
2018-06-13T00:15:43.194Z,16.08
2018-06-13T00:16:43.197Z,16.02
2018-06-13T00:17:22.071Z,16.00
2018-06-13T00:18:22.078Z,15.93
2018-06-13T00:19:21.917Z,16.00
2018-06-13T00:20:42.831Z,15.94
2018-06-13T00:21:42.812Z,15.96
2018-06-13T00:22:21.690Z,15.92
2018-06-13T00:23:21.633Z,16.04
2018-06-13T00:24:21.723Z,15.96
2018-06-13T00:25:42.522Z,15.92
2018-06-13T00:26:42.397Z,15.93
2018-06-13T00:27:21.348Z,16.02
2018-06-13T00:28:21.264Z,15.94
2018-06-13T00:29:21.196Z,16.02
2018-06-13T00:30:42.109Z,15.96
2018-06-13T00:31:42.059Z,15.96
2018-06-13T00:32:20.993Z,15.96
2018-06-13T00:33:20.908Z,15.96
2018-06-13T00:34:20.839Z,15.96
2018-06-13T00:35:41.770Z,16.00
2018-06-13T00:36:41.714Z,15.94
2018-06-13T00:37:20.644Z,16.01
2018-06-13T00:38:20.552Z,15.94
2018-06-13T00:39:20.489Z,15.94
2018-06-13T00:40:41.420Z,15.92
2018-06-13T00:41:41.308Z,15.86
2018-06-13T00:42:20.285Z,15.80
2018-06-13T00:43:20.200Z,15.86
2018-06-13T00:44:20.121Z,15.90
2018-06-13T00:45:41.044Z,15.92
2018-06-13T00:46:40.972Z,15.96
2018-06-13T00:47:19.902Z,15.86
2018-06-13T00:48:19.829Z,15.87
2018-06-13T00:49:19.759Z,15.90
2018-06-13T00:50:40.680Z,15.90
2018-06-13T00:51:40.603Z,15.92
2018-06-13T00:52:19.563Z,15.87
2018-06-13T00:53:19.482Z,15.92
2018-06-13T00:54:19.445Z,15.80
2018-06-13T00:55:40.326Z,15.86
2018-06-13T00:56:40.249Z,15.84
2018-06-13T00:57:19.221Z,15.83
2018-06-13T00:58:19.111Z,15.92
2018-06-13T00:59:19.063Z,15.86
2018-06-13T01:00:39.951Z,15.87
2018-06-13T01:01:39.902Z,15.92
2018-06-13T01:02:18.826Z,15.93
2018-06-13T01:03:18.740Z,15.93
2018-06-13T01:04:18.696Z,15.86
2018-06-13T01:05:39.597Z,15.86
2018-06-13T01:06:39.551Z,15.90
2018-06-13T01:07:18.478Z,16.00
2018-06-13T01:08:18.383Z,15.87
2018-06-13T01:09:18.331Z,15.80
2018-06-13T01:10:39.284Z,15.92
2018-06-13T01:11:39.216Z,15.90
2018-06-13T01:12:18.102Z,15.92
2018-06-13T01:13:18.048Z,15.93
2018-06-13T01:14:17.973Z,15.84
2018-06-13T01:15:38.874Z,15.83
2018-06-13T01:16:38.796Z,15.93
2018-06-13T01:17:17.744Z,15.86
2018-06-13T01:18:17.676Z,15.82
2018-06-13T01:19:17.592Z,15.78
2018-06-13T01:20:38.506Z,15.80
2018-06-13T01:21:38.432Z,15.76
2018-06-13T01:22:17.376Z,15.74
2018-06-13T01:23:17.343Z,15.75
2018-06-13T01:24:17.246Z,15.74
2018-06-13T01:25:39.904Z,15.68
2018-06-13T01:26:38.950Z,15.75
2018-06-13T01:27:17.032Z,15.65
2018-06-13T01:28:16.956Z,15.60
2018-06-13T01:29:16.884Z,15.57
2018-06-13T01:30:37.803Z,15.62
2018-06-13T01:31:37.729Z,15.62
2018-06-13T01:32:16.664Z,15.60
2018-06-13T01:33:16.583Z,15.62
2018-06-13T01:34:16.553Z,15.54
2018-06-13T01:35:37.441Z,15.59
2018-06-13T01:36:37.364Z,15.57
2018-06-13T01:37:16.317Z,15.56
2018-06-13T01:38:16.252Z,15.47
2018-06-13T01:39:16.174Z,15.57
2018-06-13T01:40:38.966Z,15.44
2018-06-13T01:41:37.893Z,15.50
2018-06-13T01:42:15.944Z,15.41
2018-06-13T01:43:15.860Z,15.43
2018-06-13T01:44:15.797Z,15.39
2018-06-13T01:45:36.721Z,15.43
2018-06-13T01:46:36.645Z,15.39
2018-06-13T01:47:15.621Z,15.31
2018-06-13T01:48:15.510Z,15.29
2018-06-13T01:49:15.433Z,15.28
2018-06-13T01:50:36.344Z,15.31
2018-06-13T01:51:36.301Z,15.21
2018-06-13T01:52:15.217Z,15.27
2018-06-13T01:53:15.167Z,15.19
2018-06-13T01:54:15.064Z,15.20
2018-06-13T01:55:36.904Z,15.14
2018-06-13T01:56:35.923Z,15.13
2018-06-13T01:57:14.869Z,15.14
2018-06-13T01:58:14.810Z,15.17
2018-06-13T01:59:14.723Z,15.14
2018-06-13T02:00:35.637Z,15.10
2018-06-13T02:01:35.569Z,15.14
2018-06-13T02:02:14.507Z,15.07
2018-06-13T02:03:14.444Z,15.03
2018-06-13T02:04:14.368Z,14.98
2018-06-13T02:05:35.270Z,14.96
2018-06-13T02:06:35.193Z,15.01
2018-06-13T02:07:14.140Z,14.98
2018-06-13T02:08:14.064Z,14.99
2018-06-13T02:09:14.005Z,14.92
2018-06-13T02:10:34.897Z,14.84
2018-06-13T02:11:34.829Z,14.77
2018-06-13T02:12:13.782Z,14.81
2018-06-13T02:13:13.717Z,14.81
2018-06-13T02:14:13.642Z,14.72
2018-06-13T02:15:34.536Z,14.81
2018-06-13T02:16:34.480Z,14.80
2018-06-13T02:17:13.427Z,14.83
2018-06-13T02:18:13.344Z,14.77
2018-06-13T02:19:13.278Z,14.78
2018-06-13T02:20:34.184Z,14.69
2018-06-13T02:21:35.940Z,14.77
2018-06-13T02:22:13.050Z,14.78
2018-06-13T02:23:12.975Z,14.78
2018-06-13T02:24:12.918Z,14.73
2018-06-13T02:25:33.871Z,14.78
2018-06-13T02:26:33.757Z,14.73
2018-06-13T02:27:12.690Z,14.78
2018-06-13T02:28:12.638Z,14.77
2018-06-13T02:29:12.545Z,14.80
2018-06-13T02:30:33.460Z,14.78
2018-06-13T02:31:33.387Z,14.75
2018-06-13T02:32:12.341Z,14.77
2018-06-13T02:33:12.258Z,14.77
2018-06-13T02:34:12.173Z,14.75
2018-06-13T02:35:34.936Z,14.69
2018-06-13T02:36:33.924Z,14.69
2018-06-13T02:37:12.889Z,14.64
2018-06-13T02:38:11.889Z,14.57
2018-06-13T02:39:11.813Z,14.51
2018-06-13T02:40:32.754Z,14.54
2018-06-13T02:41:32.679Z,14.54
2018-06-13T02:42:11.605Z,14.45
2018-06-13T02:43:11.536Z,14.47
2018-06-13T02:44:11.470Z,14.46
2018-06-13T02:45:32.360Z,14.46
2018-06-13T02:46:32.296Z,14.37
2018-06-13T02:47:11.240Z,14.36
2018-06-13T02:48:11.179Z,14.43
2018-06-13T02:49:12.949Z,14.29
2018-06-13T02:50:32.938Z,14.29
2018-06-13T02:51:31.936Z,14.42
2018-06-13T02:52:10.869Z,14.43
2018-06-13T02:53:10.819Z,14.32
2018-06-13T02:54:10.728Z,14.29
2018-06-13T02:55:31.655Z,14.29
2018-06-13T02:56:31.570Z,14.29
2018-06-13T02:57:10.523Z,14.37
2018-06-13T02:58:10.441Z,14.33
2018-06-13T02:59:10.373Z,14.24
2018-06-13T03:00:31.295Z,14.28
2018-06-13T03:01:31.224Z,14.15
2018-06-13T03:02:10.148Z,14.24
2018-06-13T03:03:10.066Z,14.15
2018-06-13T03:04:10.014Z,14.20
2018-06-13T03:05:30.913Z,14.15
2018-06-13T03:06:30.948Z,14.20
2018-06-13T03:07:09.792Z,14.25
2018-06-13T03:08:09.718Z,14.17
2018-06-13T03:09:09.644Z,14.28
2018-06-13T03:10:30.563Z,14.18
2018-06-13T03:11:30.488Z,14.22
2018-06-13T03:12:09.592Z,14.14
2018-06-13T03:13:09.360Z,14.22
2018-06-13T03:14:09.280Z,14.20
2018-06-13T03:15:30.182Z,14.18
2018-06-13T03:16:30.127Z,14.20
2018-06-13T03:17:09.046Z,14.18
2018-06-13T03:18:09.000Z,14.24
2018-06-13T03:19:08.910Z,14.21
2018-06-13T03:20:29.821Z,14.29
2018-06-13T03:21:29.749Z,14.33
2018-06-13T03:22:08.691Z,14.32
2018-06-13T03:23:08.631Z,14.29
2018-06-13T03:24:08.550Z,14.32
2018-06-13T03:25:29.462Z,14.28
2018-06-13T03:26:29.440Z,14.28
2018-06-13T03:27:08.342Z,14.40
2018-06-13T03:28:08.270Z,14.36
2018-06-13T03:29:08.189Z,14.37
2018-06-13T03:30:29.088Z,14.46
2018-06-13T03:31:29.021Z,14.35
2018-06-13T03:32:07.976Z,14.45
2018-06-13T03:33:07.886Z,14.47
2018-06-13T03:34:07.824Z,14.42
2018-06-13T03:35:28.740Z,14.32
2018-06-13T03:36:28.645Z,14.39
2018-06-13T03:37:07.588Z,14.39
2018-06-13T03:38:07.525Z,14.45
2018-06-13T03:39:07.452Z,14.42
2018-06-13T03:40:28.362Z,14.42
2018-06-13T03:41:28.285Z,14.45
2018-06-13T03:42:07.273Z,14.45
2018-06-13T03:43:07.171Z,14.46
2018-06-13T03:44:07.183Z,14.46
2018-06-13T03:45:28.004Z,14.46
2018-06-13T03:46:27.943Z,14.51
2018-06-13T03:47:06.876Z,14.52
2018-06-13T03:48:06.798Z,14.47
2018-06-13T03:49:06.726Z,14.57
2018-06-13T03:50:27.641Z,14.46
2018-06-13T03:51:27.564Z,14.39
2018-06-13T03:52:06.535Z,14.46
2018-06-13T03:53:06.438Z,14.39
2018-06-13T03:54:06.394Z,14.51
2018-06-13T03:55:27.274Z,14.46
2018-06-13T03:56:27.200Z,14.54
2018-06-13T03:57:06.150Z,14.42
2018-06-13T03:58:06.108Z,14.40
2018-06-13T03:59:06.024Z,14.50
2018-06-13T04:00:26.930Z,14.47
2018-06-13T04:01:26.860Z,14.51
2018-06-13T04:02:05.877Z,14.55
2018-06-13T04:03:05.738Z,14.58
2018-06-13T04:04:05.647Z,14.52
2018-06-13T04:05:26.589Z,14.60
2018-06-13T04:06:26.471Z,14.52
2018-06-13T04:07:05.441Z,14.61
2018-06-13T04:08:05.350Z,14.62
2018-06-13T04:09:05.284Z,14.75
2018-06-13T04:10:27.056Z,14.70
2018-06-13T04:11:26.115Z,14.69
2018-06-13T04:12:05.066Z,14.65
2018-06-13T04:13:04.989Z,14.65
2018-06-13T04:14:04.918Z,14.60
2018-06-13T04:15:25.815Z,14.73
2018-06-13T04:16:25.742Z,14.72
2018-06-13T04:17:04.697Z,14.72
2018-06-13T04:18:04.618Z,14.65
2018-06-13T04:19:04.562Z,14.68
2018-06-13T04:20:25.455Z,14.69
2018-06-13T04:21:25.381Z,14.64
2018-06-13T04:22:04.339Z,14.72
2018-06-13T04:23:04.243Z,14.69
2018-06-13T04:24:04.178Z,14.73
2018-06-13T04:25:25.085Z,14.65
2018-06-13T04:26:25.023Z,14.69
2018-06-13T04:27:03.961Z,14.73
2018-06-13T04:28:03.886Z,14.73
2018-06-13T04:29:03.813Z,14.70
2018-06-13T04:30:24.724Z,14.77
2018-06-13T04:31:24.663Z,14.65
2018-06-13T04:32:03.606Z,14.68
2018-06-13T04:33:03.523Z,14.73
2018-06-13T04:34:03.440Z,14.65
2018-06-13T04:35:24.412Z,14.68
2018-06-13T04:36:24.304Z,14.62
2018-06-13T04:37:03.227Z,14.73
2018-06-13T04:38:03.146Z,14.75
2018-06-13T04:39:05.954Z,14.78
2018-06-13T04:40:24.017Z,14.77
2018-06-13T04:41:23.924Z,14.75
2018-06-13T04:42:02.939Z,14.75
2018-06-13T04:43:02.806Z,14.81
2018-06-13T04:44:02.718Z,14.77
2018-06-13T04:45:23.643Z,14.80
2018-06-13T04:46:23.573Z,14.78
2018-06-13T04:47:02.528Z,14.81
2018-06-13T04:48:02.432Z,14.80
2018-06-13T04:49:02.357Z,14.70
2018-06-13T04:50:23.296Z,14.83
2018-06-13T04:51:23.215Z,14.80
2018-06-13T04:52:04.939Z,14.83
2018-06-13T04:53:03.924Z,14.84
2018-06-13T04:54:02.941Z,14.81
2018-06-13T04:55:22.922Z,14.84
2018-06-13T04:56:22.843Z,14.95
2018-06-13T04:57:01.798Z,14.86
2018-06-13T04:58:01.711Z,14.78
2018-06-13T04:59:01.643Z,14.95
2018-06-13T05:00:22.554Z,14.91
2018-06-13T05:01:22.484Z,15.02
2018-06-13T05:02:01.425Z,15.01
2018-06-13T05:03:01.339Z,14.96
2018-06-13T05:04:01.286Z,15.06
2018-06-13T05:05:22.197Z,15.03
2018-06-13T05:06:22.118Z,15.07
2018-06-13T05:07:02.940Z,15.14
2018-06-13T05:08:01.927Z,15.13
2018-06-13T05:09:00.916Z,15.03
2018-06-13T05:10:21.818Z,15.09
2018-06-13T05:11:21.760Z,15.13
2018-06-13T05:12:00.680Z,15.10
2018-06-13T05:13:00.628Z,15.19
2018-06-13T05:14:00.579Z,15.19
2018-06-13T05:15:21.484Z,15.10
2018-06-13T05:16:21.398Z,15.20
2018-06-13T05:17:00.339Z,15.14
2018-06-13T05:18:00.262Z,15.29
2018-06-13T05:19:00.192Z,15.28
2018-06-13T05:20:22.088Z,15.34
2018-06-13T05:21:21.030Z,15.28
2018-06-13T05:21:59.969Z,15.35
2018-06-13T05:22:59.892Z,15.29
2018-06-13T05:23:59.827Z,15.29
2018-06-13T05:25:20.739Z,15.31
2018-06-13T05:26:20.682Z,15.25
2018-06-13T05:26:59.596Z,15.31
2018-06-13T05:27:59.545Z,15.28
2018-06-13T05:28:59.467Z,15.29
2018-06-13T05:30:20.376Z,15.28
2018-06-13T05:31:20.318Z,15.36
2018-06-13T05:31:59.261Z,15.46
2018-06-13T05:32:59.175Z,15.46
2018-06-13T05:34:01.934Z,15.44
2018-06-13T05:35:20.098Z,15.44
2018-06-13T05:36:19.946Z,15.54
2018-06-13T05:36:58.899Z,15.56
2018-06-13T05:37:58.814Z,15.49
2018-06-13T05:38:58.744Z,15.59
2018-06-13T05:40:19.715Z,15.54
2018-06-13T05:41:19.574Z,15.71
2018-06-13T05:41:58.580Z,15.67
2018-06-13T05:42:58.507Z,15.62
2018-06-13T05:43:58.385Z,15.71
2018-06-13T05:45:19.292Z,15.71
2018-06-13T05:46:19.233Z,15.82
2018-06-13T05:46:58.171Z,15.76
2018-06-13T05:48:01.941Z,15.75
2018-06-13T05:49:00.940Z,15.74
2018-06-13T05:50:18.942Z,15.86
2018-06-13T05:51:18.945Z,15.76
2018-06-13T05:51:57.797Z,15.83
2018-06-13T05:52:57.750Z,15.78
2018-06-13T05:53:57.662Z,15.71
2018-06-13T05:55:18.575Z,15.71
2018-06-13T05:56:18.520Z,15.57
2018-06-13T05:56:57.472Z,15.62
2018-06-13T05:57:57.384Z,15.67
2018-06-13T05:58:57.311Z,15.72
2018-06-13T06:00:18.229Z,15.75
2018-06-13T06:01:18.214Z,15.71
2018-06-13T06:01:57.101Z,15.82
2018-06-13T06:02:57.048Z,15.83
2018-06-13T06:03:56.951Z,15.87
2018-06-13T06:05:17.862Z,15.83
2018-06-13T06:06:17.802Z,15.83
2018-06-13T06:06:56.737Z,15.80
2018-06-13T06:07:56.666Z,15.71
2018-06-13T06:08:56.595Z,15.69
2018-06-13T06:10:17.533Z,15.69
2018-06-13T06:11:17.433Z,15.74
2018-06-13T06:11:56.389Z,15.82
2018-06-13T06:12:56.312Z,15.68
2018-06-13T06:13:56.240Z,15.69
2018-06-13T06:15:17.165Z,15.71
2018-06-13T06:16:17.104Z,15.78
2018-06-13T06:16:56.012Z,15.82
2018-06-13T06:17:55.949Z,15.83
2018-06-13T06:18:55.874Z,15.84
2018-06-13T06:20:16.770Z,15.93
2018-06-13T06:21:16.709Z,15.84
2018-06-13T06:21:55.662Z,15.89
2018-06-13T06:22:55.596Z,15.87
2018-06-13T06:23:55.541Z,15.97
2018-06-13T06:25:16.429Z,15.82
2018-06-13T06:26:16.373Z,15.93
2018-06-13T06:26:55.311Z,15.86
2018-06-13T06:27:55.246Z,15.82
2018-06-13T06:28:55.168Z,15.80
2018-06-13T06:30:16.054Z,15.83
2018-06-13T06:31:16.000Z,15.93
2018-06-13T06:31:54.942Z,15.92
2018-06-13T06:32:54.879Z,15.92
2018-06-13T06:33:54.788Z,15.92
2018-06-13T06:35:15.724Z,15.97
2018-06-13T06:36:15.654Z,16.04
2018-06-13T06:36:54.592Z,16.05
2018-06-13T06:37:54.562Z,16.15
2018-06-13T06:38:54.453Z,16.08
2018-06-13T06:40:15.350Z,16.27
2018-06-13T06:41:15.286Z,16.33
2018-06-13T06:41:54.231Z,16.41
2018-06-13T06:42:54.162Z,16.45
2018-06-13T06:43:54.108Z,16.60
2018-06-13T06:45:14.995Z,16.66
2018-06-13T06:46:14.924Z,16.61
2018-06-13T06:46:53.871Z,16.67
2018-06-13T06:47:53.802Z,16.66
2018-06-13T06:48:53.742Z,16.76
2018-06-13T06:50:14.635Z,16.73
2018-06-13T06:51:14.581Z,16.68
2018-06-13T06:51:53.522Z,16.64
2018-06-13T06:52:53.444Z,16.57
2018-06-13T06:53:53.379Z,16.63
2018-06-13T06:55:14.304Z,16.68
2018-06-13T06:56:14.213Z,16.76
2018-06-13T06:56:53.167Z,16.70
2018-06-13T06:57:53.074Z,16.57
2018-06-13T06:58:53.008Z,16.56
2018-06-13T07:00:13.976Z,16.60
2018-06-13T07:01:13.858Z,16.53
2018-06-13T07:01:52.789Z,16.50
2018-06-13T07:02:52.788Z,16.52
2018-06-13T07:03:52.683Z,16.58
2018-06-13T07:05:13.599Z,16.53
2018-06-13T07:06:13.613Z,16.58
2018-06-13T07:06:52.449Z,16.49
2018-06-13T07:07:52.389Z,16.53
2018-06-13T07:08:52.316Z,16.52
2018-06-13T07:10:13.225Z,16.56
2018-06-13T07:11:13.165Z,16.50
2018-06-13T07:11:52.094Z,16.53
2018-06-13T07:12:52.017Z,16.43
2018-06-13T07:13:51.984Z,16.42
2018-06-13T07:15:12.941Z,16.33
2018-06-13T07:16:12.825Z,16.38
2018-06-13T07:16:51.742Z,16.43
2018-06-13T07:17:51.669Z,16.50
2018-06-13T07:18:51.603Z,16.53
2018-06-13T07:20:12.503Z,16.66
2018-06-13T07:21:12.450Z,16.68
2018-06-13T07:21:51.390Z,16.70
2018-06-13T07:22:51.313Z,16.57
2018-06-13T07:23:51.247Z,16.61
2018-06-13T07:25:13.099Z,16.56
2018-06-13T07:26:13.020Z,16.56
2018-06-13T07:26:51.019Z,16.66
2018-06-13T07:27:50.951Z,16.50
2018-06-13T07:28:50.905Z,16.49
2018-06-13T07:30:11.810Z,16.42
2018-06-13T07:31:11.767Z,16.50
2018-06-13T07:31:50.684Z,16.46
2018-06-13T07:32:50.612Z,16.50
2018-06-13T07:33:50.527Z,16.49
2018-06-13T07:35:11.444Z,16.49
2018-06-13T07:36:11.381Z,16.60
2018-06-13T07:36:50.321Z,16.61
2018-06-13T07:37:50.320Z,16.64
2018-06-13T07:38:50.182Z,16.68
2018-06-13T07:40:12.971Z,16.70
2018-06-13T07:41:10.999Z,16.79
2018-06-13T07:41:49.969Z,16.83
2018-06-13T07:42:49.893Z,16.83
2018-06-13T07:43:49.824Z,16.91
2018-06-13T07:45:10.729Z,16.89
2018-06-13T07:46:10.668Z,16.93
2018-06-13T07:46:49.621Z,17.06
2018-06-13T07:47:49.564Z,17.01
2018-06-13T07:48:49.483Z,17.08
2018-06-13T07:50:10.382Z,17.14
2018-06-13T07:51:10.374Z,17.25
2018-06-13T07:51:49.279Z,17.28
2018-06-13T07:52:49.177Z,17.08
2018-06-13T07:53:49.117Z,17.26
2018-06-13T07:55:10.984Z,17.22
2018-06-13T07:56:09.949Z,17.14
2018-06-13T07:56:48.900Z,17.14
2018-06-13T07:57:48.823Z,17.06
2018-06-13T07:58:48.753Z,17.06
2018-06-13T08:00:09.667Z,17.06
2018-06-13T08:01:09.592Z,17.00
2018-06-13T08:01:48.596Z,17.08
2018-06-13T08:02:48.492Z,17.03
2018-06-13T08:03:48.405Z,17.04
2018-06-13T08:05:09.395Z,17.14
2018-06-13T08:06:09.250Z,17.08
2018-06-13T08:06:48.186Z,16.98
2018-06-13T08:07:48.110Z,16.91
2018-06-13T08:08:48.120Z,16.96
2018-06-13T08:10:08.959Z,16.78
2018-06-13T08:11:08.907Z,16.75
2018-06-13T08:11:47.842Z,16.64
2018-06-13T08:12:47.763Z,16.58
2018-06-13T08:13:47.710Z,16.70
2018-06-13T08:15:08.608Z,16.64
2018-06-13T08:16:08.543Z,16.57
2018-06-13T08:16:47.528Z,16.60
2018-06-13T08:17:47.407Z,16.57
2018-06-13T08:18:47.350Z,16.64
2018-06-13T08:20:08.272Z,16.58
2018-06-13T08:21:08.193Z,16.63
2018-06-13T08:21:47.130Z,16.71
2018-06-13T08:22:47.051Z,16.63
2018-06-13T08:23:46.991Z,16.60
2018-06-13T08:25:07.910Z,16.67
2018-06-13T08:26:07.832Z,16.56
2018-06-13T08:26:46.773Z,16.56
2018-06-13T08:27:46.709Z,16.61
2018-06-13T08:28:46.630Z,16.48
2018-06-13T08:30:07.540Z,16.60
2018-06-13T08:31:07.476Z,16.48
2018-06-13T08:31:46.429Z,16.57
2018-06-13T08:32:46.437Z,16.50
2018-06-13T08:33:46.299Z,16.57
2018-06-13T08:35:07.198Z,16.61
2018-06-13T08:36:07.117Z,16.66
2018-06-13T08:36:46.076Z,16.67
2018-06-13T08:37:45.995Z,16.70
2018-06-13T08:38:45.932Z,16.66
2018-06-13T08:40:06.934Z,16.75
2018-06-13T08:41:06.748Z,16.89
2018-06-13T08:41:45.713Z,16.83
2018-06-13T08:42:45.633Z,16.86
2018-06-13T08:43:45.575Z,16.82
2018-06-13T08:45:06.466Z,16.81
2018-06-13T08:46:06.399Z,16.91
2018-06-13T08:46:45.358Z,16.97
2018-06-13T08:47:45.283Z,17.07
2018-06-13T08:48:45.204Z,17.08
2018-06-13T08:50:06.110Z,16.98
2018-06-13T08:51:06.080Z,17.16
2018-06-13T08:51:45.025Z,17.36
2018-06-13T08:52:44.926Z,17.22
2018-06-13T08:53:44.848Z,17.30
2018-06-13T08:55:05.769Z,17.28
2018-06-13T08:56:05.697Z,17.36
2018-06-13T08:56:44.673Z,17.19
2018-06-13T08:57:44.578Z,17.18
2018-06-13T08:58:44.498Z,17.19
2018-06-13T09:00:05.406Z,17.31
2018-06-13T09:01:05.347Z,17.21
2018-06-13T09:01:44.285Z,17.31
2018-06-13T09:02:44.241Z,17.22
2018-06-13T09:03:44.153Z,17.25
2018-06-13T09:05:05.059Z,17.11
2018-06-13T09:06:04.991Z,17.11
2018-06-13T09:06:43.934Z,17.16
2018-06-13T09:07:43.869Z,17.21
2018-06-13T09:08:43.805Z,17.18
2018-06-13T09:10:04.711Z,17.18
2018-06-13T09:11:04.631Z,17.23
2018-06-13T09:11:43.587Z,17.14
2018-06-13T09:12:43.503Z,17.16
2018-06-13T09:13:43.439Z,17.18
2018-06-13T09:15:04.389Z,17.16
2018-06-13T09:16:04.283Z,17.07
2018-06-13T09:16:43.270Z,17.03
2018-06-13T09:17:43.157Z,17.06
2018-06-13T09:18:43.079Z,17.00
2018-06-13T09:20:03.993Z,17.06
2018-06-13T09:21:03.940Z,16.94
2018-06-13T09:21:42.885Z,16.89
2018-06-13T09:22:42.806Z,16.88
2018-06-13T09:23:42.731Z,16.93
2018-06-13T09:25:03.650Z,16.89
2018-06-13T09:26:03.584Z,16.91
2018-06-13T09:26:42.513Z,16.86
2018-06-13T09:27:42.452Z,16.86
2018-06-13T09:28:42.390Z,16.91
2018-06-13T09:30:03.322Z,16.97
2018-06-13T09:31:03.217Z,17.01
2018-06-13T09:31:42.152Z,17.01
2018-06-13T09:32:42.093Z,17.07
2018-06-13T09:33:42.014Z,16.98
2018-06-13T09:35:05.008Z,17.18
2018-06-13T09:36:02.864Z,17.16
2018-06-13T09:36:41.803Z,17.15
2018-06-13T09:37:41.783Z,17.19
2018-06-13T09:38:41.666Z,17.19
2018-06-13T09:40:02.571Z,17.30
2018-06-13T09:41:02.524Z,17.23
2018-06-13T09:41:41.477Z,17.19
2018-06-13T09:42:41.376Z,17.26
2018-06-13T09:43:41.310Z,17.22
2018-06-13T09:45:02.228Z,17.22
2018-06-13T09:46:03.562Z,17.25
2018-06-13T09:46:48.862Z,17.22
2018-06-13T09:47:41.584Z,17.21
2018-06-13T09:48:40.945Z,17.19
2018-06-13T09:50:01.902Z,17.23
2018-06-13T09:51:01.795Z,17.30
2018-06-13T09:51:40.749Z,17.31
2018-06-13T09:52:40.676Z,17.41
2018-06-13T09:53:40.615Z,17.41
2018-06-13T09:55:01.508Z,17.49
2018-06-13T09:56:01.440Z,17.49
2018-06-13T09:56:40.384Z,17.52
2018-06-13T09:57:40.350Z,17.41
2018-06-13T09:58:40.256Z,17.33
2018-06-13T10:00:01.164Z,17.36
2018-06-13T10:01:01.654Z,17.34
2018-06-13T10:01:40.618Z,17.36
2018-06-13T10:02:39.961Z,17.25
2018-06-13T10:03:39.895Z,17.26
2018-06-13T10:05:00.807Z,17.22
2018-06-13T10:06:00.747Z,17.34
2018-06-13T10:06:39.681Z,17.15
2018-06-13T10:07:39.615Z,17.18
2018-06-13T10:08:39.616Z,17.26
2018-06-13T10:10:00.451Z,17.26
2018-06-13T10:11:00.390Z,17.12
2018-06-13T10:11:39.326Z,17.18
2018-06-13T10:12:39.276Z,17.22
2018-06-13T10:13:39.195Z,17.38
2018-06-13T10:15:00.663Z,17.21
2018-06-13T10:16:00.610Z,17.23
2018-06-13T10:16:39.514Z,17.21
2018-06-13T10:17:38.933Z,17.18
2018-06-13T10:18:38.842Z,17.30
2018-06-13T10:19:59.748Z,17.52
2018-06-13T10:20:59.676Z,17.66
2018-06-13T10:21:38.721Z,17.70
2018-06-13T10:22:38.556Z,17.79
2018-06-13T10:23:38.551Z,17.87
2018-06-13T10:24:59.399Z,17.89
2018-06-13T10:25:59.341Z,17.92
2018-06-13T10:26:38.277Z,17.82
2018-06-13T10:27:38.221Z,17.86
2018-06-13T10:28:38.686Z,17.81
2018-06-13T10:29:59.612Z,17.90
2018-06-13T10:30:59.519Z,17.86
2018-06-13T10:31:37.927Z,17.81
2018-06-13T10:32:37.858Z,17.97
2018-06-13T10:33:37.779Z,18.02
2018-06-13T10:34:58.682Z,18.15
2018-06-13T10:35:58.630Z,18.18
2018-06-13T10:36:37.566Z,18.23
2018-06-13T10:37:37.508Z,18.17
2018-06-13T10:38:37.422Z,18.17
2018-06-13T10:39:58.340Z,18.18
2018-06-13T10:40:58.290Z,18.17
2018-06-13T10:41:37.224Z,18.14
2018-06-13T10:42:37.158Z,18.12
2018-06-13T10:43:37.652Z,18.12
2018-06-13T10:44:58.578Z,18.12
2018-06-13T10:45:57.936Z,18.12
2018-06-13T10:46:36.894Z,18.07
2018-06-13T10:47:36.809Z,17.86
2018-06-13T10:48:36.743Z,17.90
2018-06-13T10:49:57.718Z,17.92
2018-06-13T10:50:57.592Z,17.92
2018-06-13T10:51:36.532Z,17.78
2018-06-13T10:52:36.540Z,17.93
2018-06-13T10:53:36.398Z,17.78
2018-06-13T10:54:57.318Z,17.90
2018-06-13T10:55:57.247Z,17.95
2018-06-13T10:56:36.188Z,17.99
2018-06-13T10:57:36.672Z,18.03
2018-06-13T10:58:36.634Z,17.90
2018-06-13T10:59:56.953Z,18.00
2018-06-13T11:00:56.906Z,18.11
2018-06-13T11:01:35.873Z,18.10
2018-06-13T11:02:35.760Z,18.14
2018-06-13T11:03:35.721Z,18.29
2018-06-13T11:04:56.592Z,18.27
2018-06-13T11:05:56.528Z,18.39
2018-06-13T11:06:35.490Z,18.37
2018-06-13T11:07:35.412Z,18.41
2018-06-13T11:08:35.386Z,18.39
2018-06-13T11:09:56.241Z,18.48
2018-06-13T11:10:56.190Z,18.52
2018-06-13T11:11:36.658Z,18.36
2018-06-13T11:12:36.531Z,18.35
2018-06-13T11:13:34.990Z,18.42
2018-06-13T11:14:55.923Z,18.41
2018-06-13T11:15:55.866Z,18.39
2018-06-13T11:16:34.778Z,18.29
2018-06-13T11:17:34.719Z,18.39
2018-06-13T11:18:34.647Z,18.35
2018-06-13T11:19:55.562Z,18.36
2018-06-13T11:20:55.502Z,18.41
2018-06-13T11:21:34.428Z,18.26
2018-06-13T11:22:34.378Z,18.14
2018-06-13T11:23:34.296Z,18.07
2018-06-13T11:24:55.213Z,18.25
2018-06-13T11:25:55.195Z,18.21
2018-06-13T11:26:34.138Z,18.26
2018-06-13T11:27:34.030Z,18.32
2018-06-13T11:28:33.948Z,18.14
2018-06-13T11:29:54.869Z,18.23
2018-06-13T11:30:54.799Z,18.03
2018-06-13T11:31:33.779Z,18.07
2018-06-13T11:32:33.674Z,18.12
2018-06-13T11:33:33.623Z,18.20
2018-06-13T11:34:54.504Z,18.32
2018-06-13T11:35:54.451Z,18.27
2018-06-13T11:36:33.379Z,18.33
2018-06-13T11:37:33.313Z,18.30
2018-06-13T11:38:33.252Z,18.27
2018-06-13T11:39:54.162Z,18.41
2018-06-13T11:40:54.107Z,18.39
2018-06-13T11:41:33.040Z,18.55
2018-06-13T11:42:32.969Z,18.65
2018-06-13T11:43:32.979Z,18.63
2018-06-13T11:44:53.836Z,18.75
2018-06-13T11:45:53.745Z,18.78
2018-06-13T11:46:32.755Z,18.88
2018-06-13T11:47:32.632Z,18.90
2018-06-13T11:48:32.568Z,18.84
2018-06-13T11:49:53.458Z,18.82
2018-06-13T11:50:53.407Z,18.92
2018-06-13T11:51:32.353Z,18.92
2018-06-13T11:52:32.322Z,19.04
2018-06-13T11:53:32.255Z,19.04
2018-06-13T11:54:53.204Z,19.04
2018-06-13T11:55:53.117Z,19.04
2018-06-13T11:56:31.996Z,19.04
2018-06-13T11:57:31.920Z,19.02
2018-06-13T11:58:31.863Z,18.95
2018-06-13T11:59:52.772Z,19.06
2018-06-13T12:00:52.713Z,19.00
2018-06-13T12:01:31.681Z,18.87
2018-06-13T12:02:31.598Z,19.06
2018-06-13T12:03:31.551Z,18.91
2018-06-13T12:04:52.433Z,18.81
2018-06-13T12:05:52.363Z,18.60
2018-06-13T12:06:31.309Z,18.58
2018-06-13T12:07:31.235Z,18.35
2018-06-13T12:08:31.164Z,18.25
2018-06-13T12:09:52.085Z,18.25
2018-06-13T12:10:52.049Z,18.21
2018-06-13T12:11:31.016Z,18.29
2018-06-13T12:12:30.905Z,18.36
2018-06-13T12:13:30.854Z,18.39
2018-06-13T12:14:51.736Z,18.35
2018-06-13T12:15:51.673Z,18.39
2018-06-13T12:16:30.623Z,18.33
2018-06-13T12:17:30.548Z,18.21
2018-06-13T12:18:30.474Z,18.10
2018-06-13T12:19:51.389Z,18.03
2018-06-13T12:20:51.325Z,17.86
2018-06-13T12:21:30.281Z,17.71
2018-06-13T12:22:30.247Z,17.71
2018-06-13T12:23:30.132Z,17.62
2018-06-13T12:24:51.040Z,17.40
2018-06-13T12:25:50.982Z,17.40
2018-06-13T12:26:29.920Z,17.38
2018-06-13T12:27:29.876Z,17.25
2018-06-13T12:28:29.821Z,17.34
2018-06-13T12:29:50.710Z,17.34
2018-06-13T12:30:50.636Z,17.21
2018-06-13T12:31:29.571Z,17.22
2018-06-13T12:32:29.524Z,17.14
2018-06-13T12:33:29.433Z,17.25
2018-06-13T12:34:50.351Z,17.38
2018-06-13T12:35:50.309Z,17.51
2018-06-13T12:36:29.221Z,17.41
2018-06-13T12:37:29.695Z,17.40
2018-06-13T12:38:29.632Z,17.43
2018-06-13T12:39:49.997Z,17.55
2018-06-13T12:40:49.917Z,17.55
2018-06-13T12:41:28.859Z,17.51
2018-06-13T12:42:28.798Z,17.52
2018-06-13T12:43:28.728Z,17.55
2018-06-13T12:44:49.677Z,17.56
2018-06-13T12:45:49.653Z,17.63
2018-06-13T12:46:28.501Z,17.72
2018-06-13T12:47:28.457Z,17.74
2018-06-13T12:48:28.384Z,17.59
2018-06-13T12:49:49.285Z,17.64
2018-06-13T12:50:49.272Z,17.68
2018-06-13T12:51:28.225Z,17.90